Time;durP1;ratioP1;P1;durP2;ratioP2;P2;SDS_P1;SDS_P2;PMS_P1;PMS_P2;Temp;Humidity;BMP_temperature;BMP_pressure;BME280_temperature;BME280_humidity;BME280_pressure;Samples;Min_cycle;Max_cycle;Signal;HPM_P1;HPM_P2
2022/12/24 00:00:00;;;;;;;9.73;5.93;;;;;;;;;;5051419;28;20199;-87
2022/12/24 00:02:26;;;;;;;11.70;5.93;;;3.40;99.90;;;;;;5051751;28;20190;-88
2022/12/24 00:04:52;;;;;;;13.43;6.53;;;;;;;;;;5035305;28;20183;-88
2022/12/24 00:07:18;;;;;;;7.00;6.00;;;;;;;;;;5051096;28;20264;-87
2022/12/24 00:09:44;;;;;;;13.13;6.70;;;;;;;;;;5051361;28;20183;-87
2022/12/24 00:12:10;;;;;;;15.97;7.13;;;;;;;;;;5034713;28;20205;-87
2022/12/24 00:14:36;;;;;;;11.40;6.77;;;;;;;;;;5051292;28;20176;-87
2022/12/24 00:17:02;;;;;;;14.47;6.43;;;;;;;;;;5036952;28;20199;-87
2022/12/24 00:19:28;;;;;;;11.13;7.20;;;;;;;;;;5055072;28;20249;-87
2022/12/24 00:21:56;;;;;;;14.17;6.40;;;;;;;;;;5054835;28;20644;-87
2022/12/24 00:24:22;;;;;;;10.93;6.80;;;;;;;;;;5054685;28;20190;-87
2022/12/24 00:26:48;;;;;;;13.03;8.20;;;;;;;;;;5054586;28;20184;-86
2022/12/24 00:29:15;;;;;;;7.93;6.37;;;;;;;;;;5054466;28;20282;-87
2022/12/24 00:31:41;;;;;;;13.87;5.73;;;;;;;;;;5038666;28;20222;-87
2022/12/24 00:34:07;;;;;;;12.03;5.43;;;;;;;;;;5054481;28;20214;-88
2022/12/24 00:36:33;;;;;;;15.47;6.70;;;;;;;;;;5054454;28;20271;-87
2022/12/24 00:38:59;;;;;;;11.33;6.07;;;;;;;;;;5054483;28;20184;-86
2022/12/24 00:41:27;;;;;;;6.10;4.93;;;;;;;;;;5055487;28;20182;-87
2022/12/24 00:43:53;;;;;;;8.53;5.33;;;;;;;;;;5054417;28;20188;-87
2022/12/24 00:46:20;;;;;;;13.50;5.57;;;;;;;;;;5055287;28;20265;-87
2022/12/24 00:48:46;;;;;;;17.00;6.73;;;;;;;;;;5055701;28;20237;-87
2022/12/24 00:51:12;;;;;;;6.73;4.57;;;;;;;;;;5037484;28;20196;-88
2022/12/24 00:53:38;;;;;;;11.80;5.70;;;;;;;;;;5037401;28;20240;-88
2022/12/24 00:56:04;;;;;;;7.43;4.53;;;3.50;99.90;;;;;;5054121;28;20545;-87
2022/12/24 00:58:30;;;;;;;8.03;4.57;;;;;;;;;;5020710;28;20191;-87
2022/12/24 01:00:56;;;;;;;13.53;5.17;;;;;;;;;;5054316;28;20183;-88
2022/12/24 01:03:22;;;;;;;7.27;5.13;;;;;;;;;;5053775;28;20229;-88
2022/12/24 01:05:48;;;;;;;10.53;6.00;;;;;;;;;;5037602;28;20183;-88
2022/12/24 01:08:14;;;;;;;9.97;5.87;;;;;;;;;;5037198;28;20274;-88
2022/12/24 01:10:40;;;;;;;10.57;6.13;;;;;;;;;;5053990;28;20211;-88
2022/12/24 01:13:06;;;;;;;11.63;6.17;;;3.50;99.90;;;;;;5053801;28;20252;-88
2022/12/24 01:15:32;;;;;;;18.53;5.93;;;;;;;;;;5054656;28;20210;-88
2022/12/24 01:17:58;;;;;;;11.70;4.90;;;3.50;99.90;;;;;;5053381;28;20183;-88
2022/12/24 01:20:25;;;;;;;5.67;3.83;;;3.50;99.90;;;;;;5053151;28;20241;-88
2022/12/24 01:22:51;;;;;;;8.97;5.53;;;;;;;;;;5054956;28;20186;-87
2022/12/24 01:25:18;;;;;;;7.20;4.93;;;;;;;;;;5054303;28;20224;-87
2022/12/24 01:27:44;;;;;;;16.43;8.13;;;;;;;;;;5054985;28;20262;-87
2022/12/24 01:30:13;;;;;;;8.60;5.57;;;3.50;99.90;;;;;;5054957;28;20180;-86
2022/12/24 01:32:39;;;;;;;16.50;5.43;;;3.50;99.90;;;;;;5053090;28;20221;-87
2022/12/24 01:35:05;;;;;;;9.20;5.50;;;3.50;99.90;;;;;;5036897;28;20180;-86
2022/12/24 01:37:31;;;;;;;10.37;6.07;;;3.50;99.90;;;;;;5036446;28;20542;-87
2022/12/24 01:43:22;;;;;;;14.97;6.33;;;;;;;;;;5036784;28;20198;-86
2022/12/24 01:45:52;;;;;;;16.13;7.50;;;3.50;99.90;;;;;;5054279;28;20193;-87
2022/12/24 01:48:36;;;;;;;10.60;7.10;;;3.50;99.90;;;;;;5053009;28;20194;-87
2022/12/24 01:51:34;;;;;;;13.77;5.70;;;3.50;99.90;;;;;;5053413;28;20226;-87
2022/12/24 01:54:08;;;;;;;8.43;4.03;;;3.50;99.90;;;;;;5052757;28;20231;-87
2022/12/24 01:56:38;;;;;;;8.83;5.17;;;3.50;99.90;;;;;;5052696;28;20691;-87
2022/12/24 01:59:08;;;;;;;8.13;3.80;;;3.50;99.90;;;;;;5052921;28;20214;-87
2022/12/24 02:01:34;;;;;;;8.63;5.10;;;;;;;;;;5054157;28;20218;-86
2022/12/24 02:04:04;;;;;;;8.63;5.20;;;3.50;99.90;;;;;;5052775;28;20202;-88
2022/12/24 02:06:30;;;;;;;18.27;7.67;;;;;;;;;;5051461;28;20629;-88
2022/12/24 02:08:56;;;;;;;12.80;6.07;;;;;;;;;;5051053;28;20201;-87
2022/12/24 02:11:22;;;;;;;19.47;7.47;;;3.40;99.90;;;;;;5053495;28;20180;-87
2022/12/24 02:13:55;;;;;;;8.87;6.13;;;3.40;99.90;;;;;;5036192;28;20220;-86
2022/12/24 02:16:35;;;;;;;11.50;5.70;;;3.50;99.90;;;;;;5052546;28;20182;-88
2022/12/24 02:19:01;;;;;;;11.80;7.30;;;3.40;99.90;;;;;;5054068;28;20253;-87
2022/12/24 02:21:49;;;;;;;5.17;4.27;;;3.40;99.90;;;;;;5052459;28;20223;-88
2022/12/24 02:24:15;;;;;;;10.47;7.33;;;;;;;;;;5052965;28;20718;-88
2022/12/24 02:26:41;;;;;;;6.47;4.77;;;;;;;;;;5052203;28;20215;-88
2022/12/24 02:29:13;;;;;;;9.70;5.43;;;3.40;99.90;;;;;;5052584;28;20226;-88
2022/12/24 02:31:45;;;;;;;12.53;6.30;;;3.40;99.90;;;;;;5052308;28;20198;-87
2022/12/24 02:34:29;;;;;;;11.40;5.43;;;3.40;99.90;;;;;;5049336;28;20577;-88
2022/12/24 02:37:15;;;;;;;6.20;3.77;;;3.40;99.90;;;;;;5032708;28;20184;-87
2022/12/24 02:39:59;;;;;;;9.17;4.77;;;3.40;99.90;;;;;;5031726;28;20176;-88
2022/12/24 02:42:35;;;;;;;16.83;6.63;;;3.40;99.90;;;;;;5032301;28;20225;-89
2022/12/24 02:45:04;;;;;;;8.00;6.40;;;3.40;99.90;;;;;;5032557;28;20179;-86
2022/12/24 02:47:31;;;;;;;7.67;5.50;;;3.40;99.90;;;;;;5033612;28;20585;-86
2022/12/24 02:49:59;;;;;;;9.67;5.87;;;3.40;99.90;;;;;;5033857;28;20199;-87
2022/12/24 02:52:36;;;;;;;17.90;5.97;;;3.40;99.90;;;;;;5046998;28;20309;-87
2022/12/24 02:55:16;;;;;;;11.43;6.73;;;3.40;99.90;;;;;;5052548;28;20229;-87
2022/12/24 02:58:11;;;;;;;6.97;5.20;;;3.40;99.90;;;;;;5048185;28;20703;-87
2022/12/24 03:01:15;;;;;;;8.30;5.83;;;3.40;99.90;;;;;;5048815;28;20190;-87
2022/12/24 03:04:06;;;;;;;6.90;4.90;;;3.40;99.90;;;;;;5051060;28;20197;-87
2022/12/24 03:06:59;;;;;;;5.23;4.00;;;3.40;99.90;;;;;;5051766;28;20254;-88
2022/12/24 03:09:40;;;;;;;11.43;5.53;;;3.40;99.90;;;;;;5051988;28;20519;-88
2022/12/24 03:12:15;;;;;;;14.20;7.90;;;3.40;99.90;;;;;;5052117;28;20586;-88
2022/12/24 03:14:42;;;;;;;19.90;8.40;;;3.40;99.90;;;;;;5052929;28;20199;-88
2022/12/24 03:17:09;;;;;;;24.43;8.67;;;3.40;99.90;;;;;;5060064;28;20226;-88
2022/12/24 03:19:35;;;;;;;16.13;6.63;;;3.40;99.90;;;;;;5052224;28;20281;-87
2022/12/24 03:22:04;;;;;;;6.17;4.40;;;3.30;99.90;;;;;;5070935;28;20205;-86
2022/12/24 03:24:30;;;;;;;9.90;5.80;;;3.40;99.90;;;;;;5060814;28;20217;-88
2022/12/24 03:26:56;;;;;;;6.93;4.97;;;3.40;99.90;;;;;;5052045;28;20549;-87
2022/12/24 03:29:21;;;;;;;11.93;5.60;;;3.30;99.90;;;;;;5053793;28;20188;-87
2022/12/24 03:31:50;;;;;;;16.17;6.43;;;3.30;99.90;;;;;;5052187;28;20679;-88
2022/12/24 03:34:17;;;;;;;8.90;6.10;;;3.30;99.90;;;;;;5053108;28;20238;-88
2022/12/24 03:36:44;;;;;;;10.53;5.73;;;;;;;;;;5051853;28;20183;-88
2022/12/24 03:39:10;;;;;;;18.93;7.30;;;;;;;;;;5051523;28;20184;-89
2022/12/24 03:41:36;;;;;;;17.63;7.33;;;;;;;;;;5046741;28;20195;-88
2022/12/24 03:44:03;;;;;;;11.83;7.57;;;3.30;99.90;;;;;;5044449;28;20242;-88
2022/12/24 03:46:29;;;;;;;7.23;5.30;;;;;;;;;;5041873;28;20207;-89
2022/12/24 03:48:55;;;;;;;16.77;5.40;;;;;;;;;;5046220;28;20179;-87
2022/12/24 03:51:23;;;;;;;6.93;4.03;;;3.30;99.90;;;;;;5041570;28;20321;-84
2022/12/24 03:53:51;;;;;;;5.23;4.47;;;3.30;99.90;;;;;;5046065;28;20226;-84
2022/12/24 03:56:16;;;;;;;8.87;5.83;;;3.40;99.90;;;;;;5051182;28;20214;-84
2022/12/24 03:58:42;;;;;;;6.77;4.63;;;3.40;99.90;;;;;;5038977;28;20265;-84
2022/12/24 04:01:08;;;;;;;7.67;5.63;;;3.30;99.90;;;;;;5048491;28;20183;-84
2022/12/24 04:03:33;;;;;;;18.90;6.73;;;3.30;99.90;;;;;;5027988;28;20188;-83
2022/12/24 04:06:16;;;;;;;8.20;5.23;;;3.30;99.90;;;;;;5057490;28;20194;-85
2022/12/24 04:08:42;;;;;;;9.13;4.97;;;3.30;99.90;;;;;;5054501;28;20272;-83
2022/12/24 04:11:10;;;;;;;13.37;5.23;;;3.30;99.90;;;;;;5052259;28;20211;-84
2022/12/24 04:13:35;;;;;;;9.53;5.40;;;3.30;99.90;;;;;;5052985;28;20222;-83
2022/12/24 04:16:07;;;;;;;10.13;5.73;;;3.30;99.90;;;;;;5063503;28;20252;-83
2022/12/24 04:18:33;;;;;;;7.23;4.83;;;3.30;99.90;;;;;;5068675;28;20183;-87
2022/12/24 04:20:59;;;;;;;10.93;4.77;;;3.20;99.90;;;;;;5049174;28;20503;-83
2022/12/24 04:23:25;;;;;;;7.77;4.77;;;3.20;99.90;;;;;;5056588;28;20192;-82
2022/12/24 04:25:51;;;;;;;10.27;5.20;;;3.20;99.90;;;;;;5071237;28;20182;-84
2022/12/24 04:28:17;;;;;;;7.93;4.60;;;3.20;99.90;;;;;;5065232;28;20200;-83
2022/12/24 04:30:43;;;;;;;7.80;5.07;;;3.20;99.90;;;;;;5034843;28;20367;-84
2022/12/24 04:33:09;;;;;;;13.23;6.23;;;3.20;99.90;;;;;;5036140;28;20222;-84
2022/12/24 04:35:42;;;;;;;8.57;4.97;;;3.20;99.90;;;;;;5034842;28;20204;-84
2022/12/24 04:38:08;;;;;;;6.97;4.00;;;3.20;99.90;;;;;;5034565;28;20181;-84
2022/12/24 04:40:34;;;;;;;14.13;5.77;;;3.20;99.90;;;;;;5036110;28;20185;-84
2022/12/24 04:43:00;;;;;;;6.00;4.57;;;3.20;99.90;;;;;;5017566;28;20765;-83
2022/12/24 04:45:26;;;;;;;5.63;4.67;;;3.20;99.90;;;;;;5034756;28;20177;-84
2022/12/24 04:47:51;;;;;;;6.07;4.13;;;3.20;99.90;;;;;;5001415;28;20180;-84
2022/12/24 04:50:17;;;;;;;7.73;3.87;;;3.20;99.90;;;;;;5018058;28;20203;-84
2022/12/24 04:52:43;;;;;;;5.10;4.53;;;3.20;99.90;;;;;;5020106;28;20231;-85
2022/12/24 04:55:09;;;;;;;6.57;4.53;;;3.20;99.90;;;;;;5055709;28;20187;-84
2022/12/24 04:57:36;;;;;;;6.10;4.40;;;3.30;99.90;;;;;;5067658;28;20184;-84
2022/12/24 05:00:04;;;;;;;11.47;5.33;;;3.30;99.90;;;;;;5069239;28;20194;-84
2022/12/24 05:02:30;;;;;;;5.83;4.53;;;3.30;99.90;;;;;;5069563;28;20183;-83
2022/12/24 05:04:55;;;;;;;8.50;4.10;;;3.30;99.90;;;;;;5057184;28;20189;-85
2022/12/24 05:07:21;;;;;;;6.47;4.53;;;3.30;99.90;;;;;;5037534;28;20639;-83
2022/12/24 05:09:47;;;;;;;4.60;3.00;;;3.30;99.90;;;;;;5053944;28;20191;-84
2022/12/24 05:12:13;;;;;;;4.80;4.33;;;3.20;99.90;;;;;;5055411;28;20187;-84
2022/12/24 05:14:39;;;;;;;7.80;5.63;;;3.20;99.90;;;;;;5054503;28;20676;-84
2022/12/24 05:17:05;;;;;;;8.10;4.50;;;;;;;;;;5053547;28;20199;-84
2022/12/24 05:19:31;;;;;;;10.60;4.93;;;3.30;99.90;;;;;;5053839;28;20232;-84
2022/12/24 05:27:25;;;;;;;15.23;6.33;;;3.20;99.90;;;;;;5045951;28;20237;-84
2022/12/24 05:29:51;;;;;;;9.37;6.17;;;3.30;99.90;;;;;;5039321;28;20180;-84
2022/12/24 05:32:16;;;;;;;4.23;3.83;;;3.20;99.90;;;;;;5020364;28;20282;-83
2022/12/24 05:34:42;;;;;;;14.07;5.37;;;3.20;99.90;;;;;;5016974;28;20700;-84
2022/12/24 05:37:08;;;;;;;7.87;5.60;;;3.20;99.90;;;;;;5035082;28;20188;-84
2022/12/24 05:39:33;;;;;;;9.90;5.50;;;3.20;99.90;;;;;;5034215;28;20176;-84
2022/12/24 05:41:59;;;;;;;12.23;6.83;;;3.20;99.90;;;;;;5040818;28;20183;-83
2022/12/24 05:44:25;;;;;;;7.80;6.10;;;3.20;99.90;;;;;;5046586;28;20277;-84
2022/12/24 05:46:50;;;;;;;13.20;7.80;;;3.20;99.90;;;;;;5044824;28;20195;-85
2022/12/24 05:49:16;;;;;;;9.30;7.30;;;3.20;99.90;;;;;;5053188;28;20700;-85
2022/12/24 05:51:42;;;;;;;7.37;5.30;;;3.20;99.90;;;;;;5019700;28;20180;-85
2022/12/24 05:54:08;;;;;;;8.13;4.97;;;3.20;99.90;;;;;;5051808;28;20781;-85
2022/12/24 05:56:33;;;;;;;8.90;6.10;;;3.20;99.90;;;;;;5052950;28;20234;-84
2022/12/24 05:58:59;;;;;;;8.40;6.13;;;3.20;99.90;;;;;;5051904;28;20190;-83
2022/12/24 06:01:31;;;;;;;27.53;9.43;;;3.20;99.90;;;;;;5053831;28;20707;-90
2022/12/24 06:04:04;;;;;;;26.60;11.90;;;3.20;99.90;;;;;;5053242;28;20187;-91
2022/12/24 06:06:38;;;;;;;25.47;13.13;;;;;;;;;;5053664;28;20184;-91
2022/12/24 06:09:24;;;;;;;35.27;14.67;;;3.20;99.90;;;;;;5052830;28;20186;-91
2022/12/24 06:11:51;;;;;;;44.43;13.57;;;;;;;;;;5053026;28;20629;-89
2022/12/24 06:14:17;;;;;;;38.70;17.47;;;;;;;;;;5052634;28;20207;-88
2022/12/24 06:16:50;;;;;;;23.53;12.50;;;3.20;99.90;;;;;;5048176;28;20184;-89
2022/12/24 06:19:16;;;;;;;26.63;12.97;;;;;;;;;;5037895;28;20598;-88
2022/12/24 06:21:42;;;;;;;43.30;15.73;;;;;;;;;;5032348;28;20629;-88
2022/12/24 06:24:08;;;;;;;35.63;17.03;;;;;;;;;;5032644;28;20299;-87
2022/12/24 06:26:37;;;;;;;44.13;14.47;;;;;;;;;;5049011;28;20186;-88
2022/12/24 06:29:03;;;;;;;39.40;12.77;;;;;;;;;;5035145;28;20184;-88
2022/12/24 06:31:29;;;;;;;31.27;12.50;;;;;;;;;;5054017;28;20200;-86
2022/12/24 06:33:55;;;;;;;25.73;11.27;;;;;;;;;;5058301;28;20566;-87
2022/12/24 06:36:24;;;;;;;24.70;13.03;;;3.20;99.90;;;;;;5066850;28;20182;-87
2022/12/24 06:38:52;;;;;;;23.70;11.00;;;;;;;;;;5043282;28;20250;-87
2022/12/24 06:41:19;;;;;;;22.80;10.43;;;3.20;99.90;;;;;;5045921;28;20279;-88
2022/12/24 06:43:47;;;;;;;15.03;9.73;;;3.10;99.90;;;;;;5031815;28;20211;-88
2022/12/24 06:46:13;;;;;;;14.07;8.07;;;;;;;;;;5048907;28;20199;-88
2022/12/24 06:48:39;;;;;;;13.00;7.93;;;;;;;;;;5051362;28;20190;-88
2022/12/24 06:51:05;;;;;;;15.47;8.67;;;3.10;99.90;;;;;;5049107;28;20588;-88
2022/12/24 06:53:31;;;;;;;21.13;9.87;;;3.80;99.90;;;;;;5044253;28;20228;-88
2022/12/24 06:56:03;;;;;;;18.10;10.63;;;3.10;99.90;;;;;;5045214;28;20199;-87
2022/12/24 06:58:29;;;;;;;16.00;9.20;;;;;;;;;;5047556;28;20334;-88
2022/12/24 07:00:55;;;;;;;12.47;7.53;;;;;;;;;;5043637;28;20185;-87
2022/12/24 07:03:23;;;;;;;19.13;8.47;;;3.20;99.90;;;;;;5050949;28;20191;-89
2022/12/24 07:05:49;;;;;;;11.70;7.80;;;;;;;;;;5042869;28;20628;-89
2022/12/24 07:08:15;;;;;;;12.13;8.17;;;;;;;;;;5043473;28;20180;-88
2022/12/24 07:10:43;;;;;;;24.33;11.17;;;3.10;99.90;;;;;;5050181;28;20232;-88
2022/12/24 07:13:10;;;;;;;39.43;16.17;;;;;;;;;;5046604;28;20204;-90
2022/12/24 07:15:36;;;;;;;46.37;16.90;;;;;;;;;;5045753;28;20550;-87
2022/12/24 07:18:02;;;;;;;39.43;19.13;;;;;;;;;;5049172;28;20256;-88
2022/12/24 07:20:28;;;;;;;42.50;15.57;;;;;;;;;;5050096;28;20194;-88
2022/12/24 07:22:54;;;;;;;20.60;11.17;;;;;;;;;;5051418;28;20199;-90
2022/12/24 07:25:20;;;;;;;43.77;12.57;;;;;;;;;;5049092;28;20188;-89
2022/12/24 07:27:46;;;;;;;25.63;12.43;;;;;;;;;;5049882;28;20230;-89
2022/12/24 07:30:14;;;;;;;16.50;10.17;;;;;;;;;;5052935;28;20287;-89
2022/12/24 07:32:40;;;;;;;16.00;7.33;;;;;;;;;;5055508;28;20217;-88
2022/12/24 07:35:07;;;;;;;15.10;8.03;;;3.20;99.90;;;;;;5058411;28;20538;-89
2022/12/24 07:37:33;;;;;;;13.63;8.30;;;;;;;;;;5051533;28;20183;-89
2022/12/24 07:39:59;;;;;;;26.83;11.73;;;;;;;;;;5051439;28;20184;-88
2022/12/24 07:42:26;;;;;;;20.23;10.47;;;;;;;;;;5050878;28;20293;-88
2022/12/24 07:44:52;;;;;;;17.23;9.17;;;;;;;;;;5053198;28;20196;-89
2022/12/24 07:47:18;;;;;;;23.87;11.03;;;;;;;;;;5053359;28;20190;-88
2022/12/24 07:49:44;;;;;;;28.13;10.63;;;;;;;;;;5045676;28;20263;-88
2022/12/24 07:52:10;;;;;;;25.10;12.87;;;;;;;;;;5054023;28;20224;-88
2022/12/24 07:54:36;;;;;;;25.30;11.60;;;;;;;;;;5030072;28;20216;-87
2022/12/24 07:57:02;;;;;;;17.57;10.57;;;;;;;;;;5049303;28;20211;-88
2022/12/24 07:59:30;;;;;;;23.57;10.27;;;;;;;;;;5051804;28;20214;-88
2022/12/24 08:01:56;;;;;;;22.67;12.23;;;;;;;;;;5041298;28;20187;-88
2022/12/24 08:04:22;;;;;;;27.43;13.23;;;;;;;;;;5034280;28;20187;-88
2022/12/24 08:06:48;;;;;;;38.97;18.77;;;;;;;;;;5032779;28;20195;-89
2022/12/24 08:09:15;;;;;;;24.90;15.57;;;;;;;;;;5046800;28;20332;-87
2022/12/24 08:11:41;;;;;;;34.17;17.43;;;;;;;;;;5027148;28;20192;-88
2022/12/24 08:14:07;;;;;;;35.67;14.47;;;;;;;;;;5044756;28;20200;-88
2022/12/24 08:16:33;;;;;;;22.17;11.47;;;;;;;;;;5035285;28;20286;-89
2022/12/24 08:18:59;;;;;;;18.20;11.17;;;;;;;;;;5020834;28;20188;-88
2022/12/24 08:21:25;;;;;;;34.70;14.23;;;;;;;;;;5026862;28;20183;-87
2022/12/24 08:23:51;;;;;;;23.57;14.07;;;3.40;99.90;;;;;;5052506;28;20721;-88
2022/12/24 08:26:16;;;;;;;17.83;10.97;;;4.10;99.90;;;;;;5049746;28;20181;-88
2022/12/24 08:28:43;;;;;;;12.77;9.43;;;3.00;99.90;;;;;;5049702;28;20189;-88
2022/12/24 08:31:16;;;;;;;23.27;10.00;;;;;;;;;;5047272;28;20188;-89
2022/12/24 08:33:42;;;;;;;24.20;10.03;;;;;;;;;;5050438;28;20218;-89
2022/12/24 08:36:08;;;;;;;25.00;11.83;;;;;;;;;;5045997;28;20191;-86
2022/12/24 08:38:35;;;;;;;24.87;10.63;;;;;;;;;;5045295;28;20207;-87
2022/12/24 08:41:01;;;;;;;21.33;12.03;;;;;;;;;;5038184;28;20184;-89
2022/12/24 08:43:27;;;;;;;26.60;13.53;;;;;;;;;;5035256;28;20184;-89
2022/12/24 08:45:53;;;;;;;21.40;14.07;;;;;;;;;;5036188;28;20191;-88
2022/12/24 08:48:19;;;;;;;26.37;12.57;;;;;;;;;;5050658;28;20306;-87
2022/12/24 08:50:46;;;;;;;27.33;12.40;;;3.70;99.90;;;;;;5046411;28;20183;-88
2022/12/24 08:53:12;;;;;;;25.17;13.20;;;;;;;;;;5043645;28;20247;-89
2022/12/24 08:55:38;;;;;;;23.60;13.73;;;;;;;;;;5041822;28;20192;-87
2022/12/24 08:58:04;;;;;;;27.53;12.63;;;;;;;;;;5045455;28;20205;-89
2022/12/24 09:00:30;;;;;;;34.37;14.67;;;;;;;;;;5045985;28;20549;-89
2022/12/24 09:02:59;;;;;;;27.13;13.97;;;;;;;;;;5023907;28;20187;-89
2022/12/24 09:05:25;;;;;;;26.13;13.97;;;;;;;;;;5042794;28;20183;-89
2022/12/24 09:07:51;;;;;;;20.70;9.73;;;;;;;;;;5046775;28;20186;-90
2022/12/24 09:10:18;;;;;;;29.27;12.43;;;;;;;;;;5047237;28;20185;-89
2022/12/24 09:12:46;;;;;;;20.33;10.70;;;4.10;99.90;;;;;;5046304;28;20191;-90
2022/12/24 09:15:13;;;;;;;13.60;10.40;;;;;;;;;;5045483;28;20192;-89
2022/12/24 09:17:39;;;;;;;11.63;7.13;;;;;;;;;;5032185;28;20212;-89
2022/12/24 09:20:06;;;;;;;24.87;9.03;;;1.70;99.90;;;;;;5045533;28;20185;-87
2022/12/24 09:22:37;;;;;;;24.57;12.23;;;4.10;99.90;;;;;;5044551;28;20318;-89
2022/12/24 09:25:09;;;;;;;17.87;8.50;;;4.40;99.90;;;;;;5041487;28;20191;-88
2022/12/24 09:27:36;;;;;;;10.67;7.37;;;;;;;;;;5049506;28;20641;-88
2022/12/24 09:30:02;;;;;;;12.60;7.97;;;;;;;;;;5049565;28;20208;-88
2022/12/24 09:32:28;;;;;;;15.20;7.20;;;;;;;;;;5047560;28;20257;-89
2022/12/24 09:34:54;;;;;;;14.93;9.03;;;;;;;;;;5046086;28;20247;-88
2022/12/24 09:37:20;;;;;;;21.33;11.00;;;;;;;;;;5046605;28;20188;-88
2022/12/24 09:39:46;;;;;;;12.30;8.77;;;;;;;;;;5051118;28;20175;-88
2022/12/24 09:42:29;;;;;;;18.50;7.70;;;4.20;99.90;;;;;;5050581;28;20648;-88
2022/12/24 09:44:57;;;;;;;16.87;9.40;;;;;;;;;;5050255;28;20687;-88
2022/12/24 09:47:38;;;;;;;19.37;9.70;;;4.30;99.90;;;;;;5051791;28;20203;-88
2022/12/24 09:50:19;;;;;;;17.53;9.07;;;4.30;99.90;;;;;;5049037;28;20207;-88
2022/12/24 09:52:45;;;;;;;13.33;8.33;;;;;;;;;;5048905;28;20763;-88
2022/12/24 09:55:36;;;;;;;16.53;7.80;;;4.40;99.90;;;;;;5051865;28;20176;-91
2022/12/24 09:58:05;;;;;;;8.87;6.67;;;4.50;99.90;;;;;;5050049;28;20180;-89
2022/12/24 10:00:36;;;;;;;16.30;8.80;;;4.50;99.90;;;;;;5032390;28;20218;-89
2022/12/24 10:03:22;;;;;;;63.93;23.20;;;4.90;99.90;;;;;;5047928;28;20549;-86
2022/12/24 10:06:09;;;;;;;24.63;12.43;;;4.50;99.90;;;;;;5047865;28;20534;-88
2022/12/24 10:09:14;;;;;;;19.57;12.40;;;4.50;99.90;;;;;;5050272;28;20182;-87
2022/12/24 10:11:40;;;;;;;14.23;9.00;;;;;;;;;;5040438;28;20205;-86
2022/12/24 10:14:33;;;;;;;34.83;14.43;;;4.40;99.90;;;;;;5046411;28;20689;-88
2022/12/24 10:17:20;;;;;;;24.40;11.63;;;4.50;99.90;;;;;;5046579;28;20270;-88
2022/12/24 10:20:07;;;;;;;31.77;14.87;;;4.60;99.90;;;;;;5046723;28;20183;-87
2022/12/24 10:23:11;;;;;;;31.43;11.93;;;4.20;99.90;;;;;;5046833;28;20237;-86
2022/12/24 10:25:37;;;;;;;24.73;11.53;;;;;;;;;;5046803;28;20186;-87
2022/12/24 10:28:12;;;;;;;27.90;10.67;;;4.30;99.90;;;;;;5042979;28;20241;-88
2022/12/24 10:30:38;;;;;;;15.53;9.37;;;;;;;;;;5034147;28;20164;-87
2022/12/24 10:33:16;;;;;;;25.93;12.80;;;4.30;99.90;;;;;;5033117;28;20242;-88
2022/12/24 10:35:47;;;;;;;18.50;10.63;;;4.30;99.90;;;;;;5034474;28;20197;-88
2022/12/24 10:38:14;;;;;;;21.60;11.07;;;;;;;;;;5036855;28;20188;-88
2022/12/24 10:40:40;;;;;;;22.50;9.80;;;;;;;;;;5039069;28;20616;-88
2022/12/24 10:43:16;;;;;;;14.63;8.33;;;4.30;99.90;;;;;;5042720;28;20283;-87
2022/12/24 10:45:45;;;;;;;20.03;11.40;;;4.30;99.90;;;;;;5038611;28;20183;-87
2022/12/24 10:48:20;;;;;;;18.40;9.90;;;4.40;99.90;;;;;;5037071;28;20192;-88
2022/12/24 10:51:24;;;;;;;44.83;14.13;;;4.40;99.90;;;;;;5038295;28;20178;-88
2022/12/24 10:54:05;;;;;;;22.80;11.20;;;4.40;99.90;;;;;;5040585;28;20230;-88
2022/12/24 10:56:31;;;;;;;33.13;13.10;;;;;;;;;;5044076;28;20250;-89
2022/12/24 10:58:57;;;;;;;19.53;10.47;;;;;;;;;;5044915;28;20180;-85
2022/12/24 11:01:43;;;;;;;21.43;13.17;;;4.50;99.90;;;;;;5044796;28;20187;-87
2022/12/24 11:04:16;;;;;;;53.47;13.07;;;4.60;99.90;;;;;;5042509;28;20176;-88
2022/12/24 11:06:54;;;;;;;22.27;12.10;;;4.60;99.90;;;;;;5041539;28;20185;-87
2022/12/24 11:09:26;;;;;;;16.80;9.70;;;4.60;99.90;;;;;;5041540;28;20218;-88
2022/12/24 11:11:55;;;;;;;35.43;12.73;;;4.50;99.90;;;;;;5040738;28;20183;-90
2022/12/24 11:14:21;;;;;;;16.20;8.97;;;;;;;;;;5043898;28;20346;-88
2022/12/24 11:16:53;;;;;;;11.30;6.27;;;4.50;99.90;;;;;;5031153;28;20188;-88
2022/12/24 11:19:27;;;;;;;9.97;6.30;;;4.40;99.90;;;;;;5053655;28;20188;-88
2022/12/24 11:22:06;;;;;;;9.27;6.20;;;4.50;99.90;;;;;;5057228;28;21559;-91
2022/12/24 11:24:34;;;;;;;9.70;5.53;;;4.40;99.90;;;;;;5054751;28;20180;-88
2022/12/24 11:27:30;;;;;;;10.33;6.53;;;4.30;99.90;;;;;;5049281;28;20180;-89
2022/12/24 11:30:27;;;;;;;13.13;6.93;;;4.40;99.90;;;;;;5054670;28;20192;-89
2022/12/24 11:33:02;;;;;;;6.10;5.50;;;4.40;99.90;;;;;;5040918;28;20180;-88
2022/12/24 11:35:31;;;;;;;23.17;8.10;;;4.50;99.90;;;;;;5044740;28;20228;-88
2022/12/24 11:37:59;;;;;;;29.77;11.17;;;4.40;99.90;;;;;;5049748;28;20179;-89
2022/12/24 11:40:37;;;;;;;16.87;8.73;;;4.50;99.90;;;;;;5044683;28;20179;-89
2022/12/24 11:43:04;;;;;;;14.67;8.70;;;4.50;99.90;;;;;;5043213;28;20180;-87
2022/12/24 11:45:32;;;;;;;22.70;8.77;;;4.50;99.90;;;;;;5044033;28;20183;-87
2022/12/24 11:47:59;;;;;;;22.63;9.03;;;4.50;99.90;;;;;;5040261;28;21674;-88
2022/12/24 11:50:30;;;;;;;15.37;7.97;;;4.60;99.90;;;;;;5041144;28;20184;-88
2022/12/24 11:53:02;;;;;;;19.83;9.23;;;4.60;99.90;;;;;;5042456;28;20238;-87
2022/12/24 11:55:46;;;;;;;22.00;11.97;;;4.60;99.90;;;;;;5036043;28;20275;-88
2022/12/24 11:58:22;;;;;;;16.57;9.83;;;4.50;99.90;;;;;;5046791;28;20203;-88
2022/12/24 12:00:50;;;;;;;15.77;8.67;;;4.60;99.90;;;;;;5044308;28;20190;-89
2022/12/24 12:03:41;;;;;;;22.03;8.50;;;4.60;99.90;;;;;;5047076;28;20206;-89
2022/12/24 12:06:35;;;;;;;47.70;14.67;;;4.60;99.90;;;;;;5047627;28;20595;-81
2022/12/24 12:09:06;;;;;;;15.63;7.83;;;4.70;99.90;;;;;;5050300;28;20169;-85
2022/12/24 12:11:34;;;;;;;10.87;6.77;;;4.70;99.90;;;;;;5047211;28;20656;-86
2022/12/24 12:14:02;;;;;;;23.40;10.17;;;4.70;99.90;;;;;;5049867;28;20199;-86
2022/12/24 12:16:59;;;;;;;11.73;8.37;;;4.70;99.90;;;;;;5045905;28;20203;-85
2022/12/24 12:19:19;;;;;;;15.33;7.50;;;4.70;99.90;;;;;;5049184;28;20192;-86
2022/12/24 12:21:47;;;;;;;21.47;6.60;;;4.70;99.90;;;;;;5045512;28;20180;-85
2022/12/24 12:24:23;;;;;;;10.87;5.47;;;4.70;99.90;;;;;;5044693;28;20196;-85
2022/12/24 12:27:04;;;;;;;13.37;7.53;;;4.60;99.90;;;;;;5046902;28;20296;-86
2022/12/24 12:29:35;;;;;;;12.90;6.87;;;4.50;99.90;;;;;;5053509;28;20593;-86
2022/12/24 12:32:09;;;;;;;12.77;7.27;;;4.50;99.90;;;;;;5053921;28;20176;-85
2022/12/24 12:34:46;;;;;;;24.17;8.93;;;4.50;99.90;;;;;;5053973;28;20235;-86
2022/12/24 12:37:19;;;;;;;21.50;8.23;;;4.50;99.90;;;;;;5054978;28;20178;-86
2022/12/24 12:39:44;;;;;;;21.50;8.43;;;4.50;99.90;;;;;;5036876;28;20267;-88
2022/12/24 12:42:30;;;;;;;15.83;9.13;;;4.40;99.90;;;;;;5034456;28;20270;-86
2022/12/24 12:45:18;;;;;;;19.37;9.03;;;4.40;99.90;;;;;;5044636;28;20275;-85
2022/12/24 12:48:21;;;;;;;19.30;9.77;;;4.30;99.90;;;;;;5043560;28;21996;-85
2022/12/24 12:50:59;;;;;;;33.10;13.47;;;4.40;99.90;;;;;;5048012;28;20175;-84
2022/12/24 12:53:54;;;;;;;54.23;23.40;;;2.60;99.90;;;;;;5044597;28;20627;-86
2022/12/24 12:56:20;;;;;;;38.43;17.57;;;4.40;99.90;;;;;;5047239;28;20278;-85
2022/12/24 12:58:48;;;;;;;65.20;20.03;;;4.30;99.90;;;;;;5051175;28;20614;-86
2022/12/24 13:01:18;;;;;;;32.90;13.47;;;4.30;99.90;;;;;;5049071;28;20242;-87
2022/12/24 13:04:25;;;;;;;41.73;12.40;;;4.30;99.90;;;;;;5044663;28;20273;-85
2022/12/24 13:07:10;;;;;;;26.63;9.80;;;4.20;99.90;;;;;;5046577;28;20191;-85
2022/12/24 13:09:48;;;;;;;22.53;11.27;;;4.20;99.90;;;;;;5062008;28;20185;-85
2022/12/24 13:12:17;;;;;;;31.87;13.33;;;4.20;99.90;;;;;;5051634;28;20191;-84
2022/12/24 13:15:01;;;;;;;28.80;12.13;;;4.10;99.90;;;;;;5053133;28;20894;-85
2022/12/24 13:17:45;;;;;;;31.63;14.03;;;4.10;99.90;;;;;;5047872;28;20187;-86
2022/12/24 13:20:28;;;;;;;33.93;11.23;;;4.10;99.90;;;;;;5049922;28;20281;-85
2022/12/24 13:23:02;;;;;;;27.37;10.37;;;4.10;99.90;;;;;;5048044;28;20176;-85
2022/12/24 13:25:33;;;;;;;32.03;13.33;;;4.10;99.90;;;;;;5046732;28;20183;-86
2022/12/24 13:28:22;;;;;;;27.33;12.27;;;4.10;99.90;;;;;;5050787;28;20215;-85
2022/12/24 13:30:50;;;;;;;28.30;12.20;;;4.00;99.90;;;;;;5046113;28;20192;-84
2022/12/24 13:33:34;;;;;;;19.77;10.63;;;4.00;99.90;;;;;;5047331;28;20208;-85
2022/12/24 13:36:21;;;;;;;50.00;14.77;;;3.90;99.90;;;;;;5061441;28;20590;-85
2022/12/24 13:38:55;;;;;;;34.17;10.87;;;3.90;99.90;;;;;;5046856;28;20189;-85
2022/12/24 13:41:34;;;;;;;35.13;15.53;;;3.90;99.90;;;;;;5040403;28;20590;-83
2022/12/24 13:44:05;;;;;;;26.70;11.17;;;3.90;99.90;;;;;;5046942;28;20238;-84
2022/12/24 13:46:59;;;;;;;30.83;12.23;;;3.90;99.90;;;;;;5042365;28;20190;-85
2022/12/24 13:49:34;;;;;;;16.80;10.97;;;3.80;99.90;;;;;;5046048;28;20192;-84